Kennicott — WCY2920 — position and weather

sailwx.info

Track history (hours):
 
Tides and Currents Weather Stations Pressure Air Temp Water Temp Dewpoint Dewpoint Depression Visibility Wind Speed Wind Dir Waves Ship Positions

Kennicott

Owner: ALASKA, STATE OF, Anchorage, AK. More information available from US FCC via Universal Licensing System and Coast Guard Vessel Documentation Center.

Last reported at 2019-Jul-17 03:01 UTC. Time now 2019-Jul-19 19:03 UTC.
Position N 58°11' W 136°36'.

Type: Passenger vessel. MMSI: 368250000.

Date/timePositionNaut miles runAvg speedWind from/ knotsBaromVisibWave heightAir tempDewpointWater temp
2019-Jul-17 03:01N 58°11' W 136°36'1112.6
2019-Jul-17 02:07N 58°17' W 136°19'214.3
2019-Jul-17 01:58N 58°18' W 136°15'613.5
2019-Jul-17 01:30N 58°20' W 136°03'612.9
2019-Jul-17 01:00N 58°19' W 135°51'612.5
2019-Jul-17 00:30N 58°17' W 135°40'812.1
2019-Jul-16 23:53N 58°14' W 135°26'250 7.0
2019-Jul-15 12:25N 54°52' W 131°00'716.2
2019-Jul-15 12:00N 54°46' W 130°55'916.4
2019-Jul-15 11:29N 54°39' W 130°46'815.8
2019-Jul-15 10:59N 54°32' W 130°39'816.1
2019-Jul-15 10:30N 54°25' W 130°37'816.2
2019-Jul-15 10:01N 54°17' W 130°34'816.3
2019-Jul-15 09:30N 54°10' W 130°26'714.6
2019-Jul-15 09:00N 54°05' W 130°18'815.8
2019-Jul-15 08:30N 53°57' W 130°12'815.1
2019-Jul-15 08:00N 53°52' W 130°03'816.1
2019-Jul-15 07:30N 53°46' W 129°54'7913.9
2019-Jul-15 01:47N 52°43' W 128°34'415.1
2019-Jul-15 01:30N 52°39' W 128°32'815.5
2019-Jul-15 01:00N 52°31' W 128°28'815.8
2019-Jul-15 00:30N 52°24' W 128°31'715.0
2019-Jul-15 00:00N 52°16' W 128°31'816.0
2019-Jul-14 23:30N 52°15' W 128°19'815.7
2019-Jul-14 23:00N 52°12' W 128°07'4 7.7
2019-Jul-14 22:30N 52°08' W 128°08'612.6
2019-Jul-14 22:00N 52°05' W 127°59'713.3
2019-Jul-14 21:30N 51°58' W 127°56'815.8
2019-Jul-14 21:00N 51°50' W 127°56'815.8
2019-Jul-14 20:30N 51°43' W 127°55'815.7
2019-Jul-14 20:00N 51°35' W 127°52'815.8
2019-Jul-14 19:30N 51°27' W 127°51'815.9
2019-Jul-14 19:00N 51°19' W 127°52'815.6
2019-Jul-14 18:30N 51°11' W 127°51'815.5
2019-Jul-14 18:00N 51°05' W 127°44'813.9
2019-Jul-14 17:28N 50°60' W 127°35'7915.3
2019-Jul-14 12:20N 50°23' W 125°46'617.7
2019-Jul-14 11:58N 50°22' W 125°36'816.4
2019-Jul-14 11:29N 50°19' W 125°25'816.2
2019-Jul-14 11:00N 50°11' W 125°22'713.9
2019-Jul-14 10:30N 50°05' W 125°16'815.1
2019-Jul-14 10:00N 49°58' W 125°11'815.9
2019-Jul-14 09:30N 49°53' W 125°02'815.9
2019-Jul-14 09:00N 49°47' W 124°53'715.1
2019-Jul-14 08:31N 49°42' W 124°45'815.6
2019-Jul-14 08:00N 49°37' W 124°36'815.8
2019-Jul-14 07:30N 49°31' W 124°28'815.6
2019-Jul-14 07:00N 49°26' W 124°18'815.5
2019-Jul-14 06:30N 49°24' W 124°07'815.2
2019-Jul-14 06:00N 49°22' W 123°56'714.7
2019-Jul-14 05:30N 49°19' W 123°45'815.6
2019-Jul-14 05:00N 49°14' W 123°36'815.4
2019-Jul-14 04:30N 49°09' W 123°28'714.7
2019-Jul-14 04:00N 49°04' W 123°20'815.7
2019-Jul-14 03:30N 48°58' W 123°11'815.8
2019-Jul-14 03:00N 48°53' W 123°02'1216.2
2019-Jul-14 02:18N 48°46' W 122°48'516.0
2019-Jul-14 02:00N 48°42' W 122°44'815.1
2019-Jul-14 01:30N 48°38' W 122°34'6 8.0
2019-Jul-14 00:47N 48°43' W 122°31'0 0.0
2019-Jul-14 00:11N 48°43' W 122°31'0 0.0
2019-Jul-13 23:59N 48°43' W 122°31'0 0.0
2019-Jul-13 23:29N 48°43' W 122°31'0 0.0
2019-Jul-13 22:59N 48°43' W 122°31'0 0.0
2019-Jul-13 22:23N 48°43' W 122°31'0 0.0
2019-Jul-13 21:59N 48°43' W 122°31'0 0.0
2019-Jul-13 21:29N 48°43' W 122°31'0 0.0
2019-Jul-13 20:59N 48°43' W 122°31'0 0.0
2019-Jul-13 20:29N 48°43' W 122°31'0 0.0
2019-Jul-13 19:59N 48°43' W 122°31'0 0.0
2019-Jul-13 19:29N 48°43' W 122°31'0 0.0
2019-Jul-13 18:59N 48°43' W 122°31'0 0.0
2019-Jul-13 18:29N 48°43' W 122°31'0 0.0
2019-Jul-13 17:59N 48°43' W 122°31'0 0.0
2019-Jul-13 17:29N 48°43' W 122°31'0 0.0
2019-Jul-13 16:53N 48°43' W 122°31'0 0.0
2019-Jul-13 16:29N 48°43' W 122°31'0 0.0
2019-Jul-13 15:59N 48°43' W 122°31'0 0.0
2019-Jul-13 15:29N 48°43' W 122°31'0 0.0
2019-Jul-13 14:59N 48°43' W 122°31'0 0.8
2019-Jul-13 14:30N 48°43' W 122°31'611.4
2019-Jul-13 14:00N 48°38' W 122°34'611.8
2019-Jul-13 13:30N 48°40' W 122°42'815.1
2019-Jul-13 13:00N 48°46' W 122°50'714.8
2019-Jul-13 12:30N 48°49' W 122°60'815.2
2019-Jul-13 12:00N 48°54' W 123°09'917.0
2019-Jul-13 11:30N 48°60' W 123°18'816.4
2019-Jul-13 11:00N 49°06' W 123°27'816.2
2019-Jul-13 10:30N 49°12' W 123°35'816.4
2019-Jul-13 10:00N 49°18' W 123°43'815.2
2019-Jul-13 09:30N 49°22' W 123°53'815.7
2019-Jul-13 09:00N 49°23' W 124°05'815.9
2019-Jul-13 08:30N 49°25' W 124°17'815.9
2019-Jul-13 08:01N 49°30' W 124°27'816.4
2019-Jul-13 07:31N 49°36' W 124°36'816.3
2019-Jul-13 07:01N 49°41' W 124°45'816.4
2019-Jul-13 06:30N 49°47' W 124°53'816.3
2019-Jul-13 06:00N 49°53' W 125°02'714.9
2019-Jul-13 05:30N 49°58' W 125°10'612.9
2019-Jul-13 05:00N 50°04' W 125°15'510.7
2019-Jul-13 04:30N 50°08' W 125°21'612.1
2019-Jul-13 04:00N 50°14' W 125°23'713.9
2019-Jul-13 03:30N 50°20' W 125°27'814.0
2019-Jul-13 02:57N 50°22' W 125°38'5514.1
2019-Jul-12 23:02N 50°44' W 126°58'2515.4
2019-Jul-12 21:24N 50°58' W 127°31'614.5
2019-Jul-12 20:58N 51°03' W 127°38'715.3
2019-Jul-12 20:31N 51°07' W 127°47'714.8
2019-Jul-12 20:00N 51°14' W 127°52'815.9
2019-Jul-12 19:31N 51°22' W 127°52'816.2
2019-Jul-12 19:00N 51°30' W 127°52'816.2
2019-Jul-12 18:31N 51°38' W 127°53'816.2
2019-Jul-12 18:01N 51°46' W 127°56'816.3
2019-Jul-12 17:30N 51°54' W 127°56'816.3
2019-Jul-12 17:00N 52°02' W 127°56'612.8
2019-Jul-12 16:31N 52°05' W 128°05'510.4
2019-Jul-12 15:59N 52°10' W 128°08'4 8.8
2019-Jul-12 15:30N 52°14' W 128°11'815.6
2019-Jul-12 15:00N 52°15' W 128°24'815.5
2019-Jul-12 14:30N 52°15' W 128°36'612.9
2019-Jul-12 14:00N 52°14' W 128°47'815.4
2019-Jul-12 13:30N 52°22' W 128°49'815.4
2019-Jul-12 13:00N 52°30' W 128°52'815.3
2019-Jul-12 12:30N 52°37' W 128°54'815.4
2019-Jul-12 12:00N 52°43' W 129°03'1016.1
2019-Jul-12 11:23N 52°50' W 129°14'1216.1
2019-Jul-12 10:36N 52°60' W 129°28'3116.2
2019-Jul-12 08:42N 53°26' W 129°55'416.2
2019-Jul-12 08:26N 53°28' W 130°01'716.1
2019-Jul-12 08:00N 53°33' W 130°10'815.9
2019-Jul-12 07:30N 53°37' W 130°21'815.5
2019-Jul-12 07:00N 53°42' W 130°31'815.4
2019-Jul-12 06:30N 53°47' W 130°41'815.6
2019-Jul-12 06:00N 53°52' W 130°51'714.4
2019-Jul-12 05:30N 53°58' W 130°57'815.3
2019-Jul-12 05:00N 54°06' W 130°60'815.5
2019-Jul-12 04:30N 54°13' W 131°02'816.2
2019-Jul-12 04:00N 54°22' W 131°03'815.7
2019-Jul-12 03:30N 54°29' W 131°03'1014.7
2019-Jul-12 02:48N 54°40' W 131°01'415.0
2019-Jul-12 02:30N 54°44' W 131°02'254 7.6
2019-Jul-10 17:06N 58°13' W 135°23'215.9
2019-Jul-10 17:00N 58°14' W 135°26'815.9
2019-Jul-10 16:30N 58°17' W 135°40'815.5
2019-Jul-10 16:00N 58°20' W 135°54'815.8
2019-Jul-10 15:30N 58°19' W 136°09'5612.4
2019-Jul-10 11:00N 58°30' W 137°54'   340 / 151017.410.8 15.013.0
2019-Jul-08 00:00N 58°54' W 152°06'6 0.3 180 / 141017.9 13.013.0
2019-Jul-07 06:00N 58°54' W 151°54'   360 / 51021.4 12.0
Track history (hours):
 
Tides and Currents Weather Stations Pressure Air Temp Water Temp Dewpoint Dewpoint Depression Visibility Wind Speed Wind Dir Waves Ship Positions

Kennicott

Owner: ALASKA, STATE OF, Anchorage, AK. More information available from US FCC via Universal Licensing System and Coast Guard Vessel Documentation Center.

Last reported at 2019-Jul-17 03:01 UTC. Time now 2019-Jul-19 19:03 UTC.
Position N 58°11' W 136°36'.

Type: Passenger vessel. MMSI: 368250000.

Date/timePositionNaut miles runAvg speedWind from/ knotsBaromVisibWave heightAir tempDewpointWater temp
2019-Jul-17 03:01N 58°11' W 136°36'1112.6
2019-Jul-17 02:07N 58°17' W 136°19'214.3
2019-Jul-17 01:58N 58°18' W 136°15'613.5
2019-Jul-17 01:30N 58°20' W 136°03'612.9
2019-Jul-17 01:00N 58°19' W 135°51'612.5
2019-Jul-17 00:30N 58°17' W 135°40'812.1
2019-Jul-16 23:53N 58°14' W 135°26'250 7.0
2019-Jul-15 12:25N 54°52' W 131°00'716.2
2019-Jul-15 12:00N 54°46' W 130°55'916.4
2019-Jul-15 11:29N 54°39' W 130°46'815.8
2019-Jul-15 10:59N 54°32' W 130°39'816.1
2019-Jul-15 10:30N 54°25' W 130°37'816.2
2019-Jul-15 10:01N 54°17' W 130°34'816.3
2019-Jul-15 09:30N 54°10' W 130°26'714.6
2019-Jul-15 09:00N 54°05' W 130°18'815.8
2019-Jul-15 08:30N 53°57' W 130°12'815.1
2019-Jul-15 08:00N 53°52' W 130°03'816.1
2019-Jul-15 07:30N 53°46' W 129°54'7913.9
2019-Jul-15 01:47N 52°43' W 128°34'415.1
2019-Jul-15 01:30N 52°39' W 128°32'815.5
2019-Jul-15 01:00N 52°31' W 128°28'815.8
2019-Jul-15 00:30N 52°24' W 128°31'715.0
2019-Jul-15 00:00N 52°16' W 128°31'816.0
2019-Jul-14 23:30N 52°15' W 128°19'815.7
2019-Jul-14 23:00N 52°12' W 128°07'4 7.7
2019-Jul-14 22:30N 52°08' W 128°08'612.6
2019-Jul-14 22:00N 52°05' W 127°59'713.3
2019-Jul-14 21:30N 51°58' W 127°56'815.8
2019-Jul-14 21:00N 51°50' W 127°56'815.8
2019-Jul-14 20:30N 51°43' W 127°55'815.7
2019-Jul-14 20:00N 51°35' W 127°52'815.8
2019-Jul-14 19:30N 51°27' W 127°51'815.9
2019-Jul-14 19:00N 51°19' W 127°52'815.6
2019-Jul-14 18:30N 51°11' W 127°51'815.5
2019-Jul-14 18:00N 51°05' W 127°44'813.9
2019-Jul-14 17:28N 50°60' W 127°35'7915.3
2019-Jul-14 12:20N 50°23' W 125°46'617.7
2019-Jul-14 11:58N 50°22' W 125°36'816.4
2019-Jul-14 11:29N 50°19' W 125°25'816.2
2019-Jul-14 11:00N 50°11' W 125°22'713.9
2019-Jul-14 10:30N 50°05' W 125°16'815.1
2019-Jul-14 10:00N 49°58' W 125°11'815.9
2019-Jul-14 09:30N 49°53' W 125°02'815.9
2019-Jul-14 09:00N 49°47' W 124°53'715.1
2019-Jul-14 08:31N 49°42' W 124°45'815.6
2019-Jul-14 08:00N 49°37' W 124°36'815.8
2019-Jul-14 07:30N 49°31' W 124°28'815.6
2019-Jul-14 07:00N 49°26' W 124°18'815.5
2019-Jul-14 06:30N 49°24' W 124°07'815.2
2019-Jul-14 06:00N 49°22' W 123°56'714.7
2019-Jul-14 05:30N 49°19' W 123°45'815.6
2019-Jul-14 05:00N 49°14' W 123°36'815.4
2019-Jul-14 04:30N 49°09' W 123°28'714.7
2019-Jul-14 04:00N 49°04' W 123°20'815.7
2019-Jul-14 03:30N 48°58' W 123°11'815.8
2019-Jul-14 03:00N 48°53' W 123°02'1216.2
2019-Jul-14 02:18N 48°46' W 122°48'516.0
2019-Jul-14 02:00N 48°42' W 122°44'815.1
2019-Jul-14 01:30N 48°38' W 122°34'6 8.0
2019-Jul-14 00:47N 48°43' W 122°31'0 0.0
2019-Jul-14 00:11N 48°43' W 122°31'0 0.0
2019-Jul-13 23:59N 48°43' W 122°31'0 0.0
2019-Jul-13 23:29N 48°43' W 122°31'0 0.0
2019-Jul-13 22:59N 48°43' W 122°31'0 0.0
2019-Jul-13 22:23N 48°43' W 122°31'0 0.0
2019-Jul-13 21:59N 48°43' W 122°31'0 0.0
2019-Jul-13 21:29N 48°43' W 122°31'0 0.0
2019-Jul-13 20:59N 48°43' W 122°31'0 0.0
2019-Jul-13 20:29N 48°43' W 122°31'0 0.0
2019-Jul-13 19:59N 48°43' W 122°31'0 0.0
2019-Jul-13 19:29N 48°43' W 122°31'0 0.0
2019-Jul-13 18:59N 48°43' W 122°31'0 0.0
2019-Jul-13 18:29N 48°43' W 122°31'0 0.0
2019-Jul-13 17:59N 48°43' W 122°31'0 0.0
2019-Jul-13 17:29N 48°43' W 122°31'0 0.0
2019-Jul-13 16:53N 48°43' W 122°31'0 0.0
2019-Jul-13 16:29N 48°43' W 122°31'0 0.0
2019-Jul-13 15:59N 48°43' W 122°31'0 0.0
2019-Jul-13 15:29N 48°43' W 122°31'0 0.0
2019-Jul-13 14:59N 48°43' W 122°31'0 0.8
2019-Jul-13 14:30N 48°43' W 122°31'611.4
2019-Jul-13 14:00N 48°38' W 122°34'611.8
2019-Jul-13 13:30N 48°40' W 122°42'815.1
2019-Jul-13 13:00N 48°46' W 122°50'714.8
2019-Jul-13 12:30N 48°49' W 122°60'815.2
2019-Jul-13 12:00N 48°54' W 123°09'917.0
2019-Jul-13 11:30N 48°60' W 123°18'816.4
2019-Jul-13 11:00N 49°06' W 123°27'816.2
2019-Jul-13 10:30N 49°12' W 123°35'816.4
2019-Jul-13 10:00N 49°18' W 123°43'815.2
2019-Jul-13 09:30N 49°22' W 123°53'815.7
2019-Jul-13 09:00N 49°23' W 124°05'815.9
2019-Jul-13 08:30N 49°25' W 124°17'815.9
2019-Jul-13 08:01N 49°30' W 124°27'816.4
2019-Jul-13 07:31N 49°36' W 124°36'816.3
2019-Jul-13 07:01N 49°41' W 124°45'816.4
2019-Jul-13 06:30N 49°47' W 124°53'816.3
2019-Jul-13 06:00N 49°53' W 125°02'714.9
2019-Jul-13 05:30N 49°58' W 125°10'612.9
2019-Jul-13 05:00N 50°04' W 125°15'510.7
2019-Jul-13 04:30N 50°08' W 125°21'612.1
2019-Jul-13 04:00N 50°14' W 125°23'713.9
2019-Jul-13 03:30N 50°20' W 125°27'814.0
2019-Jul-13 02:57N 50°22' W 125°38'5514.1
2019-Jul-12 23:02N 50°44' W 126°58'2515.4
2019-Jul-12 21:24N 50°58' W 127°31'614.5
2019-Jul-12 20:58N 51°03' W 127°38'715.3
2019-Jul-12 20:31N 51°07' W 127°47'714.8
2019-Jul-12 20:00N 51°14' W 127°52'815.9
2019-Jul-12 19:31N 51°22' W 127°52'816.2
2019-Jul-12 19:00N 51°30' W 127°52'816.2
2019-Jul-12 18:31N 51°38' W 127°53'816.2
2019-Jul-12 18:01N 51°46' W 127°56'816.3
2019-Jul-12 17:30N 51°54' W 127°56'816.3
2019-Jul-12 17:00N 52°02' W 127°56'612.8
2019-Jul-12 16:31N 52°05' W 128°05'510.4
2019-Jul-12 15:59N 52°10' W 128°08'4 8.8
2019-Jul-12 15:30N 52°14' W 128°11'815.6
2019-Jul-12 15:00N 52°15' W 128°24'815.5
2019-Jul-12 14:30N 52°15' W 128°36'612.9
2019-Jul-12 14:00N 52°14' W 128°47'815.4
2019-Jul-12 13:30N 52°22' W 128°49'815.4
2019-Jul-12 13:00N 52°30' W 128°52'815.3
2019-Jul-12 12:30N 52°37' W 128°54'815.4
2019-Jul-12 12:00N 52°43' W 129°03'1016.1
2019-Jul-12 11:23N 52°50' W 129°14'1216.1
2019-Jul-12 10:36N 52°60' W 129°28'3116.2
2019-Jul-12 08:42N 53°26' W 129°55'416.2
2019-Jul-12 08:26N 53°28' W 130°01'716.1
2019-Jul-12 08:00N 53°33' W 130°10'815.9
2019-Jul-12 07:30N 53°37' W 130°21'815.5
2019-Jul-12 07:00N 53°42' W 130°31'815.4
2019-Jul-12 06:30N 53°47' W 130°41'815.6
2019-Jul-12 06:00N 53°52' W 130°51'714.4
2019-Jul-12 05:30N 53°58' W 130°57'815.3
2019-Jul-12 05:00N 54°06' W 130°60'815.5
2019-Jul-12 04:30N 54°13' W 131°02'816.2
2019-Jul-12 04:00N 54°22' W 131°03'815.7
2019-Jul-12 03:30N 54°29' W 131°03'1014.7
2019-Jul-12 02:48N 54°40' W 131°01'415.0
2019-Jul-12 02:30N 54°44' W 131°02'254 7.6
2019-Jul-10 17:06N 58°13' W 135°23'215.9
2019-Jul-10 17:00N 58°14' W 135°26'815.9
2019-Jul-10 16:30N 58°17' W 135°40'815.5
2019-Jul-10 16:00N 58°20' W 135°54'815.8
2019-Jul-10 15:30N 58°19' W 136°09'5612.4
2019-Jul-10 11:00N 58°30' W 137°54'   340 / 151017.410.8 15.013.0
2019-Jul-08 00:00N 58°54' W 152°06'6 0.3 180 / 141017.9 13.013.0
2019-Jul-07 06:00N 58°54' W 151°54'   360 / 51021.4 12.0

Dump ship's entire track history